Historique des mesures à Cassis (13260), France
Quotidien Résumé Fevrier 14, 2018 Unités:  Métrique/US    US   Métrique
« Précédent (Jour)
Suivant (Jour) »
Quotidien Hebdomadaire Mensuel Annuel Période au choix
  Maximum: Minimum: Moyenne:
Température: 32 °F /  TemperatureC °C 40.8 °F /  4.9 °C 45 °F /  7.2 °C
Point de rosée: 32 °F /  DewpointC °C 23 °F /  -5.0 °C 29.5 °F /  -1.4 °C
Humidité: Humidity % 47 % 51 %
Vitesse du vent: WindSpeedKMH mph /  0 km/h - 8.4 mph /  13.5 km/h
Rafales: WindSpeedGustKMH mph /  0 km/h - -
Vent:- - WSW
Pression: 0 in /  PressurehPa hPa 29.8 in /  1007.7 hPa -
Précipitations: 0 in /  0.0 mm    
Historical Graphs
 
 
Mesures pour : Fevrier 14, 2018
Heure Temperature Point de rosée Pression Vent Vitesse du vent Rafales Humidité Pluie (par heure) Conditions
32 °F /  TemperatureC °C 32 °F /  DewpointC °C 0 in /  PressurehPa hPa Calm     Humidity % 0 in /  HourlyPrecipMM mm SoftwareType W/m2
00:12 40.8 °F /  4.9 °C 23 °F /  -5.0 °C 29.8 in /  1008.7 hPa Calm     49 % 0 in /  0.0 mm open2300-1.11 W/m2
01:12 42.4 °F /  5.8 °C 25.2 °F /  -3.8 °C 29.8 in /  1008.4 hPa Calm     50 % 0 in /  0.0 mm open2300-1.11 W/m2
02:12 41.7 °F /  5.4 °C 25.9 °F /  -3.4 °C 29.8 in /  1008.4 hPa NW 3.2 mph /  5.1 km/h 3.2 mph /  5.1 km/h 53 % 0 in /  0.0 mm open2300-1.11 W/m2
03:12 42.6 °F /  5.9 °C 29.1 °F /  -1.6 °C 29.8 in /  1008.4 hPa NW 6.8 mph /  10.9 km/h 8.7 mph /  14 km/h 59 % 0 in /  0.0 mm open2300-1.11 W/m2
04:12 42.1 °F /  5.6 °C 30.4 °F /  -0.9 °C 29.8 in /  1007.7 hPa NW 14.3 mph /  23 km/h 14.3 mph /  23 km/h 63 % 0 in /  0.0 mm open2300-1.11 W/m2
05:12 41.7 °F /  5.4 °C 30.7 °F /  -0.7 °C 29.8 in /  1008.4 hPa WNW 25.9 mph /  41.7 km/h 25.9 mph /  41.7 km/h 65 % 0 in /  0.0 mm open2300-1.11 W/m2
06:12 42.4 °F /  5.8 °C 29.8 °F /  -1.2 °C 29.8 in /  1009.0 hPa NNW 8.2 mph /  13.2 km/h 25.6 mph /  41.2 km/h 61 % 0 in /  0.0 mm open2300-1.11 W/m2
07:12 42.1 °F /  5.6 °C 28.8 °F /  -1.8 °C 29.8 in /  1009.4 hPa North 7.9 mph /  12.7 km/h 20.6 mph /  33.2 km/h 59 % 0 in /  0.0 mm open2300-1.11 W/m2
08:12 42.6 °F /  5.9 °C 27.5 °F /  -2.5 °C 29.8 in /  1010.0 hPa NNW 23.0 mph /  37 km/h 30.6 mph /  49.2 km/h 55 % 0 in /  0.0 mm open2300-1.11 W/m2
09:12 43.9 °F /  6.6 °C 27.9 °F /  -2.3 °C 29.8 in /  1010.7 hPa NW 13.0 mph /  20.9 km/h 13.0 mph /  20.9 km/h 53 % 0 in /  0.0 mm open2300-1.11 W/m2
11:12 46.9 °F /  8.3 °C 29.7 °F /  -1.3 °C 29.9 in /  1012.1 hPa West 23.0 mph /  37 km/h 23.0 mph /  37 km/h 51 % 0 in /  0.0 mm open2300-1.11 W/m2
12:12 48.4 °F /  9.1 °C 30 °F /  -1.1 °C 29.9 in /  1012.1 hPa NNE 14.8 mph /  23.8 km/h 15.4 mph /  24.8 km/h 49 % 0 in /  0.0 mm open2300-1.11 W/m2
13:12 49.6 °F /  9.8 °C 31.8 °F /  -0.1 °C 29.9 in /  1011.7 hPa NW 17.2 mph /  27.7 km/h 17.2 mph /  27.7 km/h 50 % 0 in /  0.0 mm open2300-1.11 W/m2
14:12 50.2 °F /  10.1 °C 31.3 °F /  -0.4 °C 29.9 in /  1012.1 hPa North 3.5 mph /  5.6 km/h 7.9 mph /  12.7 km/h 48 % 0 in /  0.0 mm open2300-1.11 W/m2
15:12 51.4 °F /  10.8 °C 31.8 °F /  -0.1 °C 29.9 in /  1012.1 hPa Calm   14.8 mph /  23.8 km/h 47 % 0 in /  0.0 mm open2300-1.11 W/m2
16:12 50.4 °F /  10.2 °C 31.5 °F /  -0.3 °C 29.9 in /  1012.1 hPa WNW 19.1 mph /  30.7 km/h 19.8 mph /  31.9 km/h 48 % 0 in /  0.0 mm open2300-1.11 W/m2
17:12 49.6 °F /  9.8 °C 31.3 °F /  -0.4 °C 29.9 in /  1012.4 hPa WNW 10.1 mph /  16.3 km/h 12.2 mph /  19.6 km/h 49 % 0 in /  0.0 mm open2300-1.11 W/m2
18:12 48.4 °F /  9.1 °C 30.9 °F /  -0.6 °C 29.9 in /  1012.8 hPa Calm     51 % 0 in /  0.0 mm open2300-1.11 W/m2
19:12 47.1 °F /  8.4 °C 29.8 °F /  -1.2 °C 29.9 in /  1013.4 hPa Calm     51 % 0 in /  0.0 mm open2300-1.11 W/m2
20:12 46.8 °F /  8.2 °C 30 °F /  -1.1 °C 29.9 in /  1013.8 hPa West 5.8 mph /  9.3 km/h 5.8 mph /  9.3 km/h 52 % 0 in /  0.0 mm open2300-1.11 W/m2
21:12 46.2 °F /  7.9 °C 30.9 °F /  -0.6 °C 29.9 in /  1014.1 hPa Calm   2.1 mph /  3.4 km/h 55 % 0 in /  0.0 mm open2300-1.11 W/m2
22:12 45.5 °F /  7.5 °C 30.2 °F /  -1.0 °C 30 in /  1014.8 hPa NW 2.6 mph /  4.2 km/h 4.7 mph /  7.6 km/h 55 % 0 in /  0.0 mm open2300-1.11 W/m2
23:12 45 °F /  7.2 °C 29.7 °F /  -1.3 °C 30 in /  1014.4 hPa NW 2.9 mph /  4.7 km/h 5.5 mph /  8.9 km/h 55 % 0 in /  0.0 mm open2300-1.11 W/m2
Observations météo à CASSIS
WU-History script by Weather Underground - 1 mb